Flight Track Log - Related Links

Times and Time Zones

All times are in EDT time to prevent confusion due to time zone crossing. See the N1944E flight status page for this flight to view local times or setup timezone preferences in your user account.

Time Position Orientation Groundspeed Altitude Reporting Facility
EDT Latitude Longitude Course Direction KTS MPH feet Rate Location/Type
Mon 08:46:44 AM 44.4942 -109.1597 298° West 100 115 9,000  Level Salt Lake Center
Mon 08:47:45 AM 44.5125 -109.1933 307° West 108 124 9,800 645 Climbing Salt Lake Center
Mon 08:48:45 AM 44.5319 -109.2250 311° West 109 125 10,300 645 Climbing Salt Lake Center
Mon 08:49:46 AM 44.5500 -109.2561 309° West 106 122 11,100 787 Climbing Salt Lake Center
Mon 08:50:47 AM 44.5617 -109.2903 296° West 103 119 11,900 843 Climbing Salt Lake Center
Mon 08:51:47 AM 44.5781 -109.3281 301° West 106 122 12,800 843 Climbing Salt Lake Center
Mon 08:52:00 AM 44.6513 -109.3780 298° West  Level Estimated
Mon 08:52:48 AM 44.5969 -109.3672 304° West 115 132 13,600  Level Salt Lake Center
Mon 08:53:49 AM 44.6142 -109.4083 300° West 121 139 14,300 744 Climbing Salt Lake Center
Mon 08:54:49 AM 44.6317 -109.4494 301° West 123 142 15,100 694 Climbing Salt Lake Center
Mon 08:55:50 AM 44.6500 -109.4894 303° West 123 142 15,700 645 Climbing Salt Lake Center
Mon 08:56:50 AM 44.6672 -109.5278 302° West 118 136 16,400 645 Climbing Salt Lake Center
Mon 08:57:51 AM 44.6872 -109.5664 306° West 120 138 17,000 590 Climbing Salt Lake Center
Mon 08:58:52 AM 44.7075 -109.6053 306° West 123 142 17,600 545 Climbing Salt Lake Center
Mon 08:59:52 AM 44.7283 -109.6458 306° West 126 145 18,100 198 Climbing Salt Lake Center
Mon 09:00:53 AM 44.7536 -109.6964 305° West 148 170 18,000 -49 Descending Salt Lake Center
Mon 09:01:54 AM 44.7828 -109.7492 308° West 164 189 18,000  Level Salt Lake Center
Mon 09:02:55 AM 44.8189 -109.8111 309° West 169 194 18,000  Level Salt Lake Center
Mon 09:03:55 AM 44.8456 -109.8622 306° West 170 196 18,000  Level Salt Lake Center
Mon 09:04:56 AM 44.8686 -109.9181 300° West 171 197 18,000  Level Salt Lake Center
Mon 09:05:57 AM 44.8883 -109.9744 296° West 170 196 18,000  Level Salt Lake Center
Mon 09:06:58 AM 44.9081 -110.0406 293° West 166 191 18,000  Level Salt Lake Center
Mon 09:07:58 AM 44.9261 -110.1008 293° West 172 198 18,000  Level Salt Lake Center
Mon 09:08:59 AM 44.9439 -110.1708 290° West 171 197 18,000  Level Salt Lake Center
Mon 09:10:00 AM 44.9639 -110.2308 295° West 175 201 18,000  Level Salt Lake Center
Mon 09:11:01 AM 44.9844 -110.2911 296° West 178 205 18,000  Level Salt Lake Center
Mon 09:12:02 AM 45.0081 -110.3617 295° West 180 207 18,000  Level Salt Lake Center
Mon 09:13:02 AM 45.0364 -110.4161 306° West 181 208 18,000  Level Salt Lake Center
Mon 09:14:03 AM 45.0603 -110.4733 301° West 175 201 18,000  Level Salt Lake Center
Mon 09:15:04 AM 45.0842 -110.5403 297° West 172 198 18,000  Level Salt Lake Center
Mon 09:16:05 AM 45.1042 -110.5978 296° West 171 197 18,000  Level Salt Lake Center
Mon 09:17:06 AM 45.1311 -110.6586 302° West 178 205 18,000  Level Salt Lake Center
Mon 09:18:07 AM 45.1572 -110.7192 301° West 176 203 18,000  Level Salt Lake Center
Mon 09:19:08 AM 45.1844 -110.7781 303° West 175 201 18,000 50 Level Salt Lake Center
Mon 09:20:08 AM 45.2078 -110.8372 299° West 170 196 18,100  Climbing Salt Lake Center
Mon 09:21:09 AM 45.2286 -110.8969 296° West 166 191 18,000 -49 Descending Salt Lake Center
Mon 09:22:10 AM 45.2464 -110.9597 292° West 168 193 18,000  Level Salt Lake Center
Mon 09:23:11 AM 45.2667 -111.0242 294° West 174 200 18,000  Level Salt Lake Center
Mon 09:24:12 AM 45.2878 -111.0928 294° West 184 212 18,000  Level Salt Lake Center
Mon 09:25:13 AM 45.3072 -111.1597 292° West 182 209 18,000  Level Salt Lake Center
Mon 09:26:14 AM 45.3267 -111.2206 294° West 181 208 18,000  Level Salt Lake Center
Mon 09:27:15 AM 45.3467 -111.2850 294° West 176 203 18,000  Level Salt Lake Center
Mon 09:28:16 AM 45.3650 -111.3442 294° West 163 188 18,000  Level Salt Lake Center
Mon 09:29:17 AM 45.3850 -111.4008 297° West 158 182 18,000  Level Salt Lake Center
Mon 09:30:18 AM 45.4031 -111.4589 294° West 158 182 18,000  Level Salt Lake Center
Mon 09:31:19 AM 45.4225 -111.5172 295° West 160 184 18,000  Level Salt Lake Center
Mon 09:32:20 AM 45.4414 -111.5744 295° West 157 181 18,000  Level Salt Lake Center
Mon 09:33:21 AM 45.4608 -111.6339 295° West 163 188 18,000 49 Level Salt Lake Center
Mon 09:34:22 AM 45.4808 -111.6936 296° West 164 189 18,100 49 Climbing Salt Lake Center
Mon 09:35:23 AM 45.4992 -111.7572 292° West 168 193 18,100  Level Salt Lake Center
Mon 09:36:24 AM 45.5192 -111.8208 294° West 172 198 18,100 -49 Level Salt Lake Center
Mon 09:37:25 AM 45.5389 -111.8861 293° West 177 204 18,000 -49 Descending Salt Lake Center
Mon 09:38:26 AM 45.5589 -111.9542 293° West 182 209 18,000  Level Salt Lake Center
Mon 09:39:27 AM 45.5803 -112.0186 295° West 177 204 18,000  Level Salt Lake Center
Mon 09:40:28 AM 45.6047 -112.0803 300° West 176 203 18,000  Level Salt Lake Center
Mon 09:41:30 AM 45.6333 -112.1403 304° West 178 205 18,000 49 Level Salt Lake Center
Mon 09:42:31 AM 45.6558 -112.2050 296° West 179 206 18,100  Climbing Salt Lake Center
Mon 09:43:32 AM 45.6750 -112.2714 292° West 179 206 18,000 -49 Descending Salt Lake Center
Mon 09:44:33 AM 45.6922 -112.3386 290° West 177 204 18,000  Level Salt Lake Center
Mon 09:45:34 AM 45.7097 -112.4058 290° West 177 204 18,000  Level Salt Lake Center
Mon 09:46:35 AM 45.7294 -112.4728 293° West 179 206 18,000 49 Level Salt Lake Center
Mon 09:47:36 AM 45.7506 -112.5378 295° West 178 205 18,100 49 Climbing Salt Lake Center
Mon 09:48:38 AM 45.7717 -112.6036 295° West 178 205 18,100 -49 Level Salt Lake Center
Mon 09:49:39 AM 45.7928 -112.6689 295° West 177 204 18,000 -49 Descending Salt Lake Center
Mon 09:50:40 AM 45.8131 -112.7342 294° West 177 204 18,000 49 Level Salt Lake Center
Mon 09:51:41 AM 45.8336 -112.7964 295° West 171 197 18,100 49 Climbing Salt Lake Center
Mon 09:52:42 AM 45.8556 -112.8589 297° West 171 197 18,100 -49 Level Salt Lake Center
Mon 09:53:44 AM 45.8789 -112.9219 298° West 175 201 18,000 -244 Descending Salt Lake Center
Mon 09:54:45 AM 45.8983 -112.9864 293° West 176 203 17,600 -492 Descending Salt Lake Center
Mon 09:55:46 AM 45.9189 -113.0553 293° West 183 211 17,000 -590 Descending Salt Lake Center
Mon 09:56:47 AM 45.9406 -113.1242 294° West 185 213 16,400 -634 Descending Salt Lake Center
Mon 09:57:49 AM 45.9636 -113.1956 295° West 191 220 15,700 -677 Descending Salt Lake Center
Mon 09:59:00 AM 45.9857 -113.2691 293° West  Level FlightAware Approximate
Mon 10:06:00 AM 46.1197 -113.7031 294° West  Level FlightAware Approximate
Mon 10:07:00 AM 46.1390 -113.7651 294° West  Level FlightAware Approximate
Mon 10:08:00 AM 46.1582 -113.8271 294° West  Level FlightAware Approximate
Mon 10:09:00 AM 46.1774 -113.8892 294° West  Level FlightAware Approximate
Mon 10:10:00 AM 46.1965 -113.9513 294° West  Level FlightAware Approximate
Mon 10:11:00 AM 46.2157 -114.0135 294° West  Level FlightAware Approximate
Mon 10:12:00 AM 46.2361 -114.0748 296° West  Level FlightAware Approximate
Mon 10:13:00 AM 46.2500 -114.1167 296° West  Level FlightAware Approximate
Mon 10:14:00 AM 46.2515 -114.1255 296° West  Level Estimated
Mon 10:15:00 AM 46.2500 -114.1167 296° West  Level FlightAware Approximate
Mon 10:16:00 AM 46.2515 -114.1255 296° West  Level Estimated
Mon 10:17:00 AM 46.2500 -114.1167 296° West  Level FlightAware Approximate
Mon 10:18:00 AM 46.2515 -114.1255 296° West  Level Estimated
Mon 10:19:00 AM 46.2500 -114.1167 296° West  Level FlightAware Approximate
Mon 10:20:00 AM 46.2515 -114.1255 296° West  Level Estimated
Mon 10:21:00 AM 46.2500 -114.1167 296° West  Level FlightAware Approximate
Mon 10:22:00 AM 46.2515 -114.1255 296° West  Level Estimated
Mon 10:23:00 AM 46.2500 -114.1167 296° West  Level FlightAware Approximate
Mon 10:24:00 AM 46.2515 -114.1255 296° West  Level Estimated
Mon 10:25:00 AM 46.2500 -114.1167 296° West  Level FlightAware Approximate
Mon 10:26:00 AM 46.2515 -114.1255 296° West  Level Estimated

Login

Don't have an account? Register now (free) for customized features, flight alerts, and more!